createdAt,value
2022-10-05T00:01:00.997Z,100.00
2022-10-05T00:03:37.827Z,100.00
2022-10-05T00:06:06.377Z,100.00
2022-10-05T00:08:36.474Z,100.00
2022-10-05T00:11:08.678Z,100.00
2022-10-05T00:13:37.099Z,100.00
2022-10-05T00:16:24.112Z,100.00
2022-10-05T00:18:55.158Z,100.00
2022-10-05T00:21:28.600Z,100.00
2022-10-05T00:23:59.373Z,100.00
2022-10-05T00:28:56.760Z,100.00
2022-10-05T00:31:33.995Z,100.00
2022-10-05T00:34:02.514Z,100.00
2022-10-05T00:36:31.045Z,100.00
2022-10-05T00:39:02.850Z,100.00
2022-10-05T00:41:48.902Z,100.00
2022-10-05T00:44:35.859Z,100.00
2022-10-05T00:47:31.507Z,100.00
2022-10-05T00:50:23.750Z,100.00
2022-10-05T00:53:04.848Z,100.00
2022-10-05T00:55:56.009Z,100.00
2022-10-05T00:58:33.088Z,100.00
2022-10-05T01:01:14.095Z,100.00
2022-10-05T01:04:00.402Z,100.00
2022-10-05T01:06:34.763Z,100.00
2022-10-05T01:09:40.089Z,100.00
2022-10-05T01:12:34.209Z,100.00
2022-10-05T01:15:40.735Z,100.00
2022-10-05T01:18:09.092Z,100.00
2022-10-05T01:21:02.079Z,100.00
2022-10-05T01:23:54.333Z,100.00
2022-10-05T01:26:32.040Z,100.00
2022-10-05T01:29:19.966Z,100.00
2022-10-05T01:32:00.813Z,100.00
2022-10-05T01:34:44.467Z,100.00
2022-10-05T01:37:28.213Z,100.00
2022-10-05T01:40:04.343Z,100.00
2022-10-05T01:42:44.623Z,100.00
2022-10-05T01:45:39.101Z,100.00
2022-10-05T01:48:18.720Z,100.00
2022-10-05T01:51:05.805Z,100.00
2022-10-05T01:53:49.095Z,100.00
2022-10-05T01:56:32.487Z,100.00
2022-10-05T01:59:17.603Z,100.00
2022-10-05T02:02:06.385Z,100.00
2022-10-05T02:05:01.389Z,100.00
2022-10-05T02:07:40.075Z,100.00
2022-10-05T02:10:26.329Z,100.00
2022-10-05T02:13:02.061Z,100.00
2022-10-05T02:15:45.273Z,100.00
2022-10-05T02:18:20.900Z,100.00
2022-10-05T02:20:51.151Z,100.00
2022-10-05T02:23:34.676Z,100.00
2022-10-05T02:26:04.542Z,100.00
2022-10-05T02:28:56.770Z,100.00
2022-10-05T02:31:56.785Z,100.00
2022-10-05T02:34:44.992Z,100.00
2022-10-05T02:37:24.182Z,100.00
2022-10-05T02:40:30.705Z,100.00
2022-10-05T02:43:22.337Z,100.00
2022-10-05T02:46:02.654Z,100.00
2022-10-05T02:48:52.068Z,100.00
2022-10-05T02:51:25.702Z,100.00
2022-10-05T02:54:24.529Z,99.59
2022-10-05T02:56:58.500Z,99.83
2022-10-05T02:59:41.806Z,99.10
2022-10-05T03:02:34.287Z,97.60
2022-10-05T03:05:17.874Z,97.20
2022-10-05T03:08:19.516Z,98.09
2022-10-05T03:10:57.860Z,97.99
2022-10-05T03:13:38.357Z,97.88
2022-10-05T03:16:15.935Z,96.75
2022-10-05T03:18:47.100Z,95.77
2022-10-05T03:21:49.556Z,96.37
2022-10-05T03:24:45.087Z,96.58
2022-10-05T03:27:42.155Z,97.41
2022-10-05T03:30:13.438Z,95.38
2022-10-05T03:32:49.739Z,97.36
2022-10-05T03:35:26.958Z,94.86
2022-10-05T03:38:03.508Z,94.98
2022-10-05T03:40:57.957Z,94.46
2022-10-05T03:43:55.437Z,94.30
2022-10-05T03:46:36.404Z,94.58
2022-10-05T03:49:31.865Z,95.85
2022-10-05T03:52:12.534Z,95.35
2022-10-05T03:54:57.308Z,91.40
2022-10-05T03:57:29.913Z,92.71
2022-10-05T04:00:06.062Z,93.67
2022-10-05T04:03:03.401Z,93.39
2022-10-05T04:05:40.198Z,91.95
2022-10-05T04:08:32.692Z,93.82
2022-10-05T04:11:07.370Z,92.31
2022-10-05T04:13:44.644Z,91.92
2022-10-05T04:16:16.450Z,91.27
2022-10-05T04:19:16.571Z,89.39
2022-10-05T04:22:13.651Z,92.22
2022-10-05T04:24:51.199Z,91.29
2022-10-05T04:27:51.867Z,92.69
2022-10-05T04:30:21.333Z,97.01
2022-10-05T04:32:58.850Z,98.61
2022-10-05T04:35:46.407Z,91.29
2022-10-05T04:38:41.246Z,90.52
2022-10-05T04:41:31.037Z,85.76
2022-10-05T04:44:08.187Z,89.16
2022-10-05T04:46:52.001Z,89.50
2022-10-05T04:49:53.619Z,89.60
2022-10-05T04:53:00.006Z,86.08
2022-10-05T04:55:53.237Z,84.97
2022-10-05T04:59:05.897Z,85.74
2022-10-05T05:02:06.874Z,85.86
2022-10-05T05:04:59.946Z,84.25
2022-10-05T05:07:55.248Z,85.60
2022-10-05T05:10:49.331Z,84.17
2022-10-05T05:13:39.672Z,85.89
2022-10-05T05:16:28.655Z,84.30
2022-10-05T05:19:19.346Z,86.58
2022-10-05T05:22:05.482Z,84.68
2022-10-05T05:25:05.519Z,81.21
2022-10-05T05:27:51.943Z,83.13
2022-10-05T05:30:44.795Z,82.47
2022-10-05T05:33:37.939Z,83.13
2022-10-05T05:36:45.503Z,85.28
2022-10-05T05:39:49.217Z,83.91
2022-10-05T05:42:51.502Z,84.60
2022-10-05T05:45:49.852Z,83.65
2022-10-05T05:48:36.716Z,83.29
2022-10-05T05:51:19.612Z,85.38
2022-10-05T05:54:04.948Z,83.32
2022-10-05T05:56:40.524Z,81.75
2022-10-05T05:59:28.094Z,81.52
2022-10-05T06:02:26.631Z,84.91
2022-10-05T06:05:28.808Z,84.14
2022-10-05T06:08:02.728Z,82.31
2022-10-05T06:10:44.966Z,81.39
2022-10-05T06:13:37.718Z,84.88
2022-10-05T06:16:11.401Z,82.17
2022-10-05T06:18:44.790Z,81.82
2022-10-05T06:21:24.584Z,83.75
2022-10-05T06:24:17.284Z,83.06
2022-10-05T06:27:23.545Z,85.25
2022-10-05T06:30:05.474Z,81.22
2022-10-05T06:32:43.031Z,83.82
2022-10-05T06:35:41.330Z,84.93
2022-10-05T06:38:16.853Z,82.83
2022-10-05T06:41:12.930Z,80.43
2022-10-05T06:43:58.396Z,80.94
2022-10-05T06:46:32.829Z,82.84
2022-10-05T06:49:17.023Z,81.74
2022-10-05T06:52:18.251Z,83.93
2022-10-05T06:55:24.794Z,81.85
2022-10-05T06:57:59.226Z,82.61
2022-10-05T07:00:50.490Z,84.94
2022-10-05T07:03:33.554Z,83.77
2022-10-05T07:06:18.561Z,82.01
2022-10-05T07:09:08.062Z,87.13
2022-10-05T07:12:02.284Z,79.50
2022-10-05T07:14:44.860Z,83.28
2022-10-05T07:17:40.490Z,82.81
2022-10-05T07:20:17.900Z,81.45
2022-10-05T07:23:04.133Z,82.21
2022-10-05T07:25:51.159Z,80.14
2022-10-05T07:28:25.342Z,80.56
2022-10-05T07:31:13.010Z,78.96
2022-10-05T07:33:54.590Z,78.94
2022-10-05T07:37:02.334Z,82.82
2022-10-05T07:40:01.136Z,78.96
2022-10-05T07:42:48.926Z,77.87
2022-10-05T07:45:22.559Z,77.81
2022-10-05T07:48:00.490Z,78.44
2022-10-05T07:50:43.919Z,81.55
2022-10-05T07:53:29.928Z,82.12
2022-10-05T07:56:06.649Z,80.13
2022-10-05T07:58:59.524Z,80.63
2022-10-05T08:01:35.611Z,78.98
2022-10-05T08:04:12.802Z,82.50
2022-10-05T08:07:04.404Z,79.48
2022-10-05T08:09:35.506Z,79.44
2022-10-05T08:12:29.058Z,81.88
2022-10-05T08:15:04.765Z,83.32
2022-10-05T08:17:57.209Z,82.35
2022-10-05T08:20:49.661Z,83.99
2022-10-05T08:23:44.800Z,82.39
2022-10-05T08:26:41.052Z,82.43
2022-10-05T08:29:13.962Z,81.94
2022-10-05T08:31:47.955Z,81.92
2022-10-05T08:34:38.136Z,81.38
2022-10-05T08:37:15.444Z,81.44
2022-10-05T08:39:52.394Z,81.54
2022-10-05T08:42:50.744Z,81.95
2022-10-05T08:45:24.635Z,83.17
2022-10-05T08:48:14.587Z,83.47
2022-10-05T08:51:04.074Z,82.93
2022-10-05T08:53:56.872Z,83.96
2022-10-05T08:56:38.931Z,84.25
2022-10-05T08:59:43.856Z,84.76
2022-10-05T09:02:39.469Z,84.46
2022-10-05T09:05:44.810Z,84.72
2022-10-05T09:08:42.449Z,83.34
2022-10-05T09:11:32.882Z,82.68
2022-10-05T09:14:08.621Z,83.39
2022-10-05T09:16:48.922Z,83.26
2022-10-05T09:19:51.887Z,83.14
2022-10-05T09:22:49.086Z,83.67
2022-10-05T09:25:25.068Z,81.52
2022-10-05T09:28:00.218Z,81.48
2022-10-05T09:30:44.022Z,82.13
2022-10-05T09:33:14.974Z,83.99
2022-10-05T09:36:03.018Z,84.60
2022-10-05T09:38:47.904Z,84.35
2022-10-05T09:41:41.037Z,84.82
2022-10-05T09:44:37.314Z,84.03
2022-10-05T09:47:37.802Z,83.64
2022-10-05T09:50:34.472Z,84.19
2022-10-05T09:53:31.260Z,84.32
2022-10-05T09:56:02.314Z,84.56
2022-10-05T09:58:42.004Z,84.07
2022-10-05T10:01:32.742Z,84.21
2022-10-05T10:04:17.171Z,84.64
2022-10-05T10:07:05.927Z,84.84
2022-10-05T10:09:49.484Z,85.13
2022-10-05T10:12:51.539Z,85.00
2022-10-05T10:16:14.956Z,85.62
2022-10-05T10:18:55.551Z,85.75
2022-10-05T10:21:51.115Z,85.60
2022-10-05T10:24:25.512Z,85.72
2022-10-05T10:30:28.435Z,86.30
2022-10-05T10:33:23.167Z,86.54
2022-10-05T10:36:31.191Z,87.97
2022-10-05T10:39:26.882Z,89.21
2022-10-05T10:42:26.271Z,89.52
2022-10-05T10:45:13.046Z,90.45
2022-10-05T10:48:22.579Z,90.29
2022-10-05T10:51:13.801Z,90.41
2022-10-05T10:53:59.094Z,90.72
2022-10-05T10:56:59.623Z,91.33
2022-10-05T10:59:49.558Z,91.85
2022-10-05T11:03:06.845Z,92.78
2022-10-05T11:05:56.408Z,93.35
2022-10-05T11:08:55.744Z,93.85
2022-10-05T11:12:02.549Z,93.94
2022-10-05T11:14:53.350Z,94.89
2022-10-05T11:17:24.759Z,95.75
2022-10-05T11:20:24.382Z,96.04
2022-10-05T11:22:58.497Z,96.31
2022-10-05T11:25:32.496Z,96.39
2022-10-05T11:28:18.288Z,96.49
2022-10-05T11:30:50.286Z,96.76
2022-10-05T11:33:59.631Z,96.91
2022-10-05T11:36:41.182Z,97.32
2022-10-05T11:39:21.692Z,98.03
2022-10-05T11:41:52.621Z,97.85
2022-10-05T11:44:58.530Z,97.92
2022-10-05T11:47:59.269Z,98.48
2022-10-05T11:50:39.444Z,98.55
2022-10-05T11:53:15.244Z,98.91
2022-10-05T11:56:10.863Z,99.45
2022-10-05T11:58:57.442Z,99.06
2022-10-05T12:01:46.963Z,99.58
2022-10-05T12:04:35.576Z,99.39
2022-10-05T12:07:22.503Z,99.87
2022-10-05T12:10:33.692Z,99.94
2022-10-05T12:13:13.010Z,100.00
2022-10-05T12:16:39.895Z,100.00
2022-10-05T12:19:18.902Z,100.00
2022-10-05T12:22:16.273Z,100.00
2022-10-05T12:25:02.903Z,100.00
2022-10-05T12:27:54.134Z,100.00
2022-10-05T12:30:52.388Z,100.00
2022-10-05T12:33:39.342Z,100.00
2022-10-05T12:36:16.481Z,100.00
2022-10-05T12:39:02.500Z,100.00
2022-10-05T12:41:49.391Z,100.00
2022-10-05T12:44:49.620Z,100.00
2022-10-05T12:47:28.780Z,100.00
2022-10-05T12:50:02.860Z,100.00
2022-10-05T12:53:03.157Z,100.00
2022-10-05T12:56:02.964Z,100.00
2022-10-05T12:58:58.535Z,100.00
2022-10-05T13:01:38.169Z,100.00
2022-10-05T13:04:32.067Z,100.00
2022-10-05T13:07:06.074Z,100.00
2022-10-05T13:10:09.880Z,100.00
2022-10-05T13:13:06.820Z,100.00
2022-10-05T13:15:43.053Z,100.00
2022-10-05T13:18:20.500Z,100.00
2022-10-05T13:21:05.405Z,100.00
2022-10-05T13:23:58.166Z,100.00
2022-10-05T13:26:37.476Z,100.00
2022-10-05T13:29:20.703Z,100.00
2022-10-05T13:31:57.971Z,100.00
2022-10-05T13:34:44.577Z,100.00
2022-10-05T13:37:32.820Z,100.00
2022-10-05T13:40:35.099Z,100.00
2022-10-05T13:43:06.871Z,100.00
2022-10-05T13:45:37.852Z,100.00
2022-10-05T13:48:42.457Z,100.00
2022-10-05T13:51:19.757Z,100.00
2022-10-05T13:54:23.033Z,100.00
2022-10-05T13:56:57.875Z,100.00
2022-10-05T13:59:37.132Z,100.00
2022-10-05T14:02:24.116Z,100.00
2022-10-05T14:05:03.651Z,100.00
2022-10-05T14:07:39.744Z,100.00
2022-10-05T14:10:17.144Z,100.00
2022-10-05T14:12:46.855Z,100.00
2022-10-05T14:15:42.118Z,100.00
2022-10-05T14:18:28.934Z,100.00
2022-10-05T14:21:16.831Z,100.00
2022-10-05T14:23:45.842Z,100.00
2022-10-05T14:26:34.402Z,100.00
2022-10-05T14:29:18.972Z,100.00
2022-10-05T14:32:02.829Z,100.00
2022-10-05T14:34:40.305Z,100.00
2022-10-05T14:37:23.408Z,100.00
2022-10-05T14:39:55.693Z,100.00
2022-10-05T14:42:26.580Z,100.00
2022-10-05T14:45:15.240Z,100.00
2022-10-05T14:48:01.176Z,100.00
2022-10-05T14:50:33.422Z,100.00
2022-10-05T14:53:19.691Z,100.00
2022-10-05T14:56:12.506Z,100.00
2022-10-05T14:59:02.506Z,100.00
2022-10-05T15:01:34.833Z,100.00
2022-10-05T15:04:36.446Z,100.00
2022-10-05T15:07:22.621Z,100.00
2022-10-05T15:10:03.688Z,100.00
2022-10-05T15:12:40.936Z,100.00
2022-10-05T15:15:33.923Z,100.00
2022-10-05T15:18:26.222Z,100.00
2022-10-05T15:21:17.882Z,100.00
2022-10-05T15:24:03.509Z,100.00
2022-10-05T15:26:58.359Z,100.00
2022-10-05T15:29:37.057Z,100.00
2022-10-05T15:32:17.218Z,100.00
2022-10-05T15:35:04.932Z,100.00
2022-10-05T15:37:48.715Z,100.00
2022-10-05T15:40:38.149Z,100.00
2022-10-05T15:43:14.828Z,100.00
2022-10-05T15:46:04.655Z,100.00
2022-10-05T15:48:54.194Z,100.00
2022-10-05T15:51:43.327Z,100.00
2022-10-05T15:54:44.954Z,100.00
2022-10-05T15:57:13.416Z,100.00
2022-10-05T15:59:59.193Z,100.00
2022-10-05T16:02:53.016Z,100.00
2022-10-05T16:06:04.657Z,100.00
2022-10-05T16:08:57.408Z,100.00
2022-10-05T16:12:18.817Z,100.00
2022-10-05T16:14:50.177Z,100.00
2022-10-05T16:17:36.427Z,100.00
2022-10-05T16:20:24.596Z,100.00
2022-10-05T16:23:00.518Z,100.00
2022-10-05T16:26:10.381Z,100.00
2022-10-05T16:28:54.098Z,100.00
2022-10-05T16:31:41.670Z,100.00
2022-10-05T16:34:37.839Z,100.00
2022-10-05T16:37:32.920Z,100.00
2022-10-05T16:40:06.841Z,100.00
2022-10-05T16:43:06.919Z,100.00
2022-10-05T16:45:53.053Z,100.00
2022-10-05T16:48:27.903Z,100.00
2022-10-05T16:50:59.226Z,100.00
2022-10-05T16:53:38.576Z,100.00
2022-10-05T16:56:26.239Z,100.00
2022-10-05T16:59:20.904Z,100.00
2022-10-05T17:02:25.377Z,100.00
2022-10-05T17:05:25.063Z,100.00
2022-10-05T17:08:17.475Z,100.00
2022-10-05T17:11:00.735Z,100.00
2022-10-05T17:13:44.537Z,100.00
2022-10-05T17:16:15.575Z,100.00
2022-10-05T17:19:21.054Z,100.00
2022-10-05T17:22:40.593Z,100.00
2022-10-05T17:25:16.062Z,100.00
2022-10-05T17:27:54.778Z,100.00
2022-10-05T17:30:48.450Z,100.00
2022-10-05T17:33:25.783Z,100.00
2022-10-05T17:35:59.298Z,100.00
2022-10-05T17:38:36.573Z,100.00
2022-10-05T17:41:27.815Z,100.00
2022-10-05T17:44:08.445Z,100.00
2022-10-05T17:46:48.902Z,100.00
2022-10-05T17:49:27.791Z,100.00
2022-10-05T17:52:14.275Z,100.00
2022-10-05T17:55:03.818Z,100.00
2022-10-05T17:57:34.991Z,100.00
2022-10-05T18:00:06.245Z,100.00
2022-10-05T18:02:39.341Z,100.00
2022-10-05T18:05:13.565Z,100.00
2022-10-05T18:07:44.119Z,100.00
2022-10-05T18:10:18.450Z,100.00
2022-10-05T18:13:35.880Z,100.00
2022-10-05T18:16:04.332Z,100.00
2022-10-05T18:18:44.973Z,100.00
2022-10-05T18:21:16.364Z,100.00
2022-10-05T18:23:53.954Z,100.00
2022-10-05T18:26:54.689Z,100.00
2022-10-05T18:30:03.442Z,100.00
2022-10-05T18:32:46.549Z,100.00
2022-10-05T18:35:42.311Z,100.00
2022-10-05T18:38:29.353Z,100.00
2022-10-05T18:41:03.325Z,100.00
2022-10-05T18:43:49.626Z,100.00
2022-10-05T18:46:40.256Z,100.00
2022-10-05T18:49:30.907Z,100.00
2022-10-05T18:52:16.041Z,100.00
2022-10-05T18:55:02.898Z,100.00
2022-10-05T18:57:51.083Z,100.00
2022-10-05T19:00:23.572Z,100.00
2022-10-05T19:03:02.507Z,100.00
2022-10-05T19:06:22.020Z,100.00
2022-10-05T19:09:05.096Z,100.00
2022-10-05T19:12:02.654Z,100.00
2022-10-05T19:15:01.693Z,100.00
2022-10-05T19:17:50.045Z,100.00
2022-10-05T19:20:38.191Z,100.00
2022-10-05T19:23:21.525Z,100.00
2022-10-05T19:26:04.212Z,100.00
2022-10-05T19:28:47.167Z,100.00
2022-10-05T19:31:49.252Z,100.00
2022-10-05T19:34:29.515Z,100.00
2022-10-05T19:37:41.135Z,100.00
2022-10-05T19:40:40.185Z,100.00
2022-10-05T19:43:37.403Z,100.00
2022-10-05T19:46:17.778Z,100.00
2022-10-05T19:48:57.880Z,100.00
2022-10-05T19:51:30.391Z,100.00
2022-10-05T19:54:13.628Z,100.00
2022-10-05T19:56:51.436Z,100.00
2022-10-05T19:59:26.722Z,100.00
2022-10-05T20:01:59.345Z,100.00
2022-10-05T20:04:45.634Z,100.00
2022-10-05T20:07:17.577Z,100.00
2022-10-05T20:09:58.893Z,100.00
2022-10-05T20:12:51.456Z,100.00
2022-10-05T20:15:41.161Z,100.00
2022-10-05T20:19:06.453Z,100.00
2022-10-05T20:21:43.914Z,100.00
2022-10-05T20:24:26.741Z,100.00
2022-10-05T20:27:06.975Z,100.00
2022-10-05T20:29:43.638Z,100.00
2022-10-05T20:32:18.958Z,100.00
2022-10-05T20:34:50.298Z,100.00
2022-10-05T20:37:21.022Z,100.00
2022-10-05T20:39:49.497Z,100.00
2022-10-05T20:42:17.883Z,100.00
2022-10-05T20:44:46.955Z,100.00
2022-10-05T20:47:15.547Z,100.00
2022-10-05T20:49:44.001Z,100.00
2022-10-05T20:52:16.004Z,100.00
2022-10-05T20:54:47.257Z,100.00
2022-10-05T20:57:15.650Z,100.00
2022-10-05T20:59:44.035Z,100.00
2022-10-05T21:02:12.440Z,100.00
2022-10-05T21:04:41.879Z,100.00
2022-10-05T21:07:10.647Z,100.00
2022-10-05T21:09:40.333Z,100.00
2022-10-05T21:12:08.683Z,100.00
2022-10-05T21:14:38.588Z,100.00
2022-10-05T21:17:07.731Z,100.00
2022-10-05T21:19:40.544Z,100.00
2022-10-05T21:22:10.235Z,100.00
2022-10-05T21:24:40.299Z,100.00
2022-10-05T21:27:10.554Z,100.00
2022-10-05T21:29:41.874Z,100.00
2022-10-05T21:32:12.358Z,100.00
2022-10-05T21:34:41.448Z,100.00
2022-10-05T21:37:10.285Z,100.00
2022-10-05T21:39:38.720Z,100.00
2022-10-05T21:42:07.084Z,100.00
2022-10-05T21:44:36.216Z,100.00
2022-10-05T21:47:05.282Z,100.00
2022-10-05T21:49:34.085Z,100.00
2022-10-05T21:52:04.330Z,100.00
2022-10-05T21:54:34.771Z,100.00
2022-10-05T21:57:04.065Z,100.00
2022-10-05T21:59:35.399Z,100.00
2022-10-05T22:02:03.947Z,100.00
2022-10-05T22:04:32.314Z,100.00
2022-10-05T22:07:01.078Z,100.00
2022-10-05T22:09:29.507Z,100.00
2022-10-05T22:11:58.427Z,100.00
2022-10-05T22:14:26.899Z,100.00
2022-10-05T22:16:55.948Z,100.00
2022-10-05T22:19:24.488Z,100.00
2022-10-05T22:21:52.807Z,100.00
2022-10-05T22:24:21.155Z,100.00
2022-10-05T22:26:52.370Z,100.00
2022-10-05T22:29:21.496Z,100.00
2022-10-05T22:31:50.408Z,100.00
2022-10-05T22:34:19.302Z,100.00
2022-10-05T22:36:48.734Z,100.00
2022-10-05T22:39:18.186Z,100.00
2022-10-05T22:41:46.830Z,100.00
2022-10-05T22:44:15.274Z,100.00
2022-10-05T22:46:43.727Z,100.00
2022-10-05T22:49:12.191Z,100.00
2022-10-05T22:51:40.506Z,100.00
2022-10-05T22:54:08.972Z,100.00
2022-10-05T22:56:37.323Z,100.00
2022-10-05T22:59:05.699Z,100.00
2022-10-05T23:01:34.062Z,100.00
2022-10-05T23:04:03.035Z,100.00
2022-10-05T23:06:32.619Z,100.00
2022-10-05T23:09:00.904Z,100.00
2022-10-05T23:11:31.106Z,100.00
2022-10-05T23:14:00.840Z,100.00
2022-10-05T23:16:30.685Z,100.00
2022-10-05T23:19:00.127Z,100.00
2022-10-05T23:21:30.930Z,100.00
2022-10-05T23:23:59.277Z,100.00
2022-10-05T23:26:27.956Z,100.00
2022-10-05T23:28:56.362Z,100.00
2022-10-05T23:31:31.582Z,100.00
2022-10-05T23:34:00.005Z,100.00
2022-10-05T23:36:33.211Z,100.00
2022-10-05T23:39:01.831Z,100.00
2022-10-05T23:41:30.234Z,100.00
2022-10-05T23:43:58.628Z,100.00
2022-10-05T23:46:27.191Z,100.00
2022-10-05T23:48:55.678Z,100.00
2022-10-05T23:51:24.050Z,100.00
2022-10-05T23:53:52.518Z,100.00
2022-10-05T23:56:20.890Z,100.00
2022-10-05T23:58:49.243Z,100.00
